Lilburn, Georgia
Current Conditions -  °F | °C
As of 4:53 AM on Saturday 01 Nov 2014 (Local Time) from KPDK Reporting Station
Overcast Overcast  
Wind Chill: 27°   Ceiling: 3300
Heat Index: 38°   Visibility: 10mi
Dew Point: 28°   Wind: 23mph
Humidity: 68%   Direction: 300°WNW
Pressure: 29.91"   Gusts: 36mph
Location:  33.89°N, 84.13°W
Report Text: KPDK 010853Z 30020G31KT 10SM OVC033 03/M02 A2991 RMK AO2 PK WND 32033/0836 SLP133 T00331022 58010
Loading
Personal Weather Stations






























Interactive Weather Map
Tropical Storm Tracking
New forecast layout! Learn more

10-Day Weather Forecast

Advertisements
Track Severe Weather on mobile